Tranquillity, CA

7:29 PM PDT on August 22, 2014 (GMT -0700)
MAP MENDOTA (P304) CA PSD | Change Station
CLOSE
Current Station
Personal Weather Station
Location: Mendota, CA
Elevation: 164 ft
Nearby Weather Stations

Elev 164 ft 36.74 °N, 120.36 °W | Updated 29 minutes ago

Clear
Clear
94 °F
Feels Like 90 °F
N
5
Wind Variable Wind from NNW
Gusts 0.0 mph

Today
High -- | Low -- °F
--% Chance of Precip.
Yesterday
High -- | Low -- °F
Precip. -- in
6:24 AM 7:42 PM
Waning Crescent, 6% visible
Pressure 29.80 in
Visibility 10.0 miles
Clouds Clear
Heat Index 90 °F
Dew Point 48 °F
Humidity 21%
Rainfall -999.00 in
Snow Depth Not available.
UV 0 out of 12
Pollen 9.00 out of 12
Air Quality Not available.
Flu Activity Not available.
METAR KMAE 230153Z AUTO 31012KT 10SM CLR 32/08 A2981 RMK AO2 SLP091 T03170078

More Conditions Fewer Conditions

Pressure 29.80 in
Visibility 10.0 miles
Clouds Clear
Heat Index 90 °F
Dew Point 48 °F
Humidity 21%
Rainfall -999.00 in
Snow Depth Not available.
UV 0 out of 12
Pollen 9.00 out of 12
Air Quality Not available.
Flu Activity Not available.
METAR KMAE 230153Z AUTO 31012KT 10SM CLR 32/08 A2981 RMK AO2 SLP091 T03170078

More Conditions Fewer Conditions

10-Day Weather Forecast

Almanac

Astronomy

Aug. 22, 2014 Rise Set
Actual Time 6:24 AM PDT 7:42 PM PDT
Civil Twilight 5:57 AM PDT 8:09 PM PDT
Nautical Twilight 5:24 AM PDT 8:42 PM PDT
Astronomical Twilight 4:51 AM PDT 9:15 PM PDT
Moon 3:53 AM PDT (8/22) 5:53 PM PDT (8/22)
Length of Visible Light 14h 12m
Length of Day
13h 18m
Tomorrow will be 2m 9s shorter.
Waning Crescent, 6% of the Moon is Illuminated
Today
Waning Crescent
Aug 25
New
Sep 2
First Quarter
Sep 8
Full
Sep 15
Last Quarter

Today's Extremes

State Highs State Lows

Community

WunderPhotos

Upload Photos

1,746,345 photos uploaded!

WunderBlogs® & News

Nearby

Snow Depth

Station Depth Elevation
Leavitt Meadows 0 in 7200 ft
Summit Meadow 0 in 9122 ft
Monitor Pass 0 in 8350 ft
CSS Lab 0 in 6900 ft
Adin Mountain 1 in 6200 ft

Earthquake Activity

City Distance Mag. Time & Date
Berkeley, California 137 miles 2.6 7:41 PM PDT
2014-08-16
King City, California 40 miles 2.7 10:26 PM PDT
2014-08-15
Minimum magnitude displayed is 2.5.

Coastal Water Temperatures

Place Temperature
No Stations Reporting

Nearby Weather Stations